sensor_id;sensor_type;location;lat;lon;timestamp;P1;durP1;ratioP1;P2;durP2;ratioP2
17510;SDS011;8873;48.818;9.422;2023-07-28T00:00:33;4.65;;;3.28;;
17510;SDS011;8873;48.818;9.422;2023-07-28T00:03:00;3.92;;;3.55;;
17510;SDS011;8873;48.818;9.422;2023-07-28T00:05:28;4.40;;;3.25;;
17510;SDS011;8873;48.818;9.422;2023-07-28T00:07:56;4.28;;;3.70;;
17510;SDS011;8873;48.818;9.422;2023-07-28T00:10:23;4.72;;;3.45;;
17510;SDS011;8873;48.818;9.422;2023-07-28T00:12:51;4.03;;;3.20;;
17510;SDS011;8873;48.818;9.422;2023-07-28T00:15:20;3.83;;;3.47;;
17510;SDS011;8873;48.818;9.422;2023-07-28T00:17:48;4.03;;;3.63;;
17510;SDS011;8873;48.818;9.422;2023-07-28T00:20:15;3.33;;;3.03;;
17510;SDS011;8873;48.818;9.422;2023-07-28T00:22:43;4.40;;;3.15;;
17510;SDS011;8873;48.818;9.422;2023-07-28T00:25:10;5.28;;;3.05;;
17510;SDS011;8873;48.818;9.422;2023-07-28T00:27:38;4.80;;;3.28;;
17510;SDS011;8873;48.818;9.422;2023-07-28T00:30:06;5.25;;;3.38;;
17510;SDS011;8873;48.818;9.422;2023-07-28T00:32:35;3.55;;;3.25;;
17510;SDS011;8873;48.818;9.422;2023-07-28T00:35:06;3.67;;;3.33;;
17510;SDS011;8873;48.818;9.422;2023-07-28T00:37:33;5.60;;;3.05;;
17510;SDS011;8873;48.818;9.422;2023-07-28T00:40:01;4.15;;;2.97;;
17510;SDS011;8873;48.818;9.422;2023-07-28T00:42:30;5.45;;;3.47;;
17510;SDS011;8873;48.818;9.422;2023-07-28T00:45:00;3.80;;;3.00;;
17510;SDS011;8873;48.818;9.422;2023-07-28T00:47:28;4.07;;;3.28;;
17510;SDS011;8873;48.818;9.422;2023-07-28T00:49:57;3.60;;;2.85;;
17510;SDS011;8873;48.818;9.422;2023-07-28T00:52:31;3.40;;;3.10;;
17510;SDS011;8873;48.818;9.422;2023-07-28T00:54:59;3.20;;;2.90;;
17510;SDS011;8873;48.818;9.422;2023-07-28T00:57:27;5.68;;;4.00;;
17510;SDS011;8873;48.818;9.422;2023-07-28T00:59:54;3.38;;;3.08;;
17510;SDS011;8873;48.818;9.422;2023-07-28T01:02:22;3.25;;;2.95;;
17510;SDS011;8873;48.818;9.422;2023-07-28T01:04:50;4.68;;;3.35;;
17510;SDS011;8873;48.818;9.422;2023-07-28T01:07:20;4.13;;;3.72;;
17510;SDS011;8873;48.818;9.422;2023-07-28T01:09:52;8.95;;;3.20;;
17510;SDS011;8873;48.818;9.422;2023-07-28T01:12:26;4.50;;;3.60;;
17510;SDS011;8873;48.818;9.422;2023-07-28T01:14:53;3.75;;;3.22;;
17510;SDS011;8873;48.818;9.422;2023-07-28T01:17:21;5.82;;;3.60;;
17510;SDS011;8873;48.818;9.422;2023-07-28T01:19:50;4.97;;;3.25;;
17510;SDS011;8873;48.818;9.422;2023-07-28T01:22:25;4.45;;;3.60;;
17510;SDS011;8873;48.818;9.422;2023-07-28T01:25:04;5.65;;;3.40;;
17510;SDS011;8873;48.818;9.422;2023-07-28T01:27:34;4.75;;;3.25;;
17510;SDS011;8873;48.818;9.422;2023-07-28T01:30:03;4.18;;;3.40;;
17510;SDS011;8873;48.818;9.422;2023-07-28T01:32:31;4.32;;;3.50;;
17510;SDS011;8873;48.818;9.422;2023-07-28T01:34:59;5.07;;;3.20;;
17510;SDS011;8873;48.818;9.422;2023-07-28T01:37:27;4.05;;;3.38;;
17510;SDS011;8873;48.818;9.422;2023-07-28T01:39:55;4.60;;;3.30;;
17510;SDS011;8873;48.818;9.422;2023-07-28T01:42:23;4.32;;;3.50;;
17510;SDS011;8873;48.818;9.422;2023-07-28T01:44:55;3.42;;;3.10;;
17510;SDS011;8873;48.818;9.422;2023-07-28T01:47:22;4.07;;;3.15;;
17510;SDS011;8873;48.818;9.422;2023-07-28T01:49:51;3.40;;;3.10;;
17510;SDS011;8873;48.818;9.422;2023-07-28T01:52:19;4.45;;;3.25;;
17510;SDS011;8873;48.818;9.422;2023-07-28T01:54:47;4.38;;;3.50;;
17510;SDS011;8873;48.818;9.422;2023-07-28T01:57:17;3.63;;;3.00;;
17510;SDS011;8873;48.818;9.422;2023-07-28T01:59:47;3.83;;;3.10;;
17510;SDS011;8873;48.818;9.422;2023-07-28T02:02:16;4.60;;;3.45;;
17510;SDS011;8873;48.818;9.422;2023-07-28T02:04:44;4.35;;;3.58;;
17510;SDS011;8873;48.818;9.422;2023-07-28T02:07:12;3.35;;;3.05;;
17510;SDS011;8873;48.818;9.422;2023-07-28T02:09:40;5.07;;;3.55;;
17510;SDS011;8873;48.818;9.422;2023-07-28T02:12:07;4.63;;;3.20;;
17510;SDS011;8873;48.818;9.422;2023-07-28T02:14:35;5.25;;;3.40;;
17510;SDS011;8873;48.818;9.422;2023-07-28T02:17:03;4.78;;;3.22;;
17510;SDS011;8873;48.818;9.422;2023-07-28T02:19:32;3.92;;;3.17;;
17510;SDS011;8873;48.818;9.422;2023-07-28T02:21:59;5.47;;;3.85;;
17510;SDS011;8873;48.818;9.422;2023-07-28T02:24:28;4.60;;;3.90;;
17510;SDS011;8873;48.818;9.422;2023-07-28T02:26:55;4.95;;;3.28;;
17510;SDS011;8873;48.818;9.422;2023-07-28T02:29:23;3.60;;;3.20;;
17510;SDS011;8873;48.818;9.422;2023-07-28T02:31:50;4.20;;;3.67;;
17510;SDS011;8873;48.818;9.422;2023-07-28T02:34:18;4.30;;;3.40;;
17510;SDS011;8873;48.818;9.422;2023-07-28T02:36:47;3.35;;;3.05;;
17510;SDS011;8873;48.818;9.422;2023-07-28T02:39:14;5.45;;;3.42;;
17510;SDS011;8873;48.818;9.422;2023-07-28T02:41:42;5.68;;;3.55;;
17510;SDS011;8873;48.818;9.422;2023-07-28T02:44:09;3.80;;;3.30;;
17510;SDS011;8873;48.818;9.422;2023-07-28T02:46:37;3.70;;;2.97;;
17510;SDS011;8873;48.818;9.422;2023-07-28T02:49:05;3.90;;;3.60;;
17510;SDS011;8873;48.818;9.422;2023-07-28T02:51:35;7.13;;;3.30;;
17510;SDS011;8873;48.818;9.422;2023-07-28T02:54:04;4.53;;;3.88;;
17510;SDS011;8873;48.818;9.422;2023-07-28T02:56:33;3.67;;;3.08;;
17510;SDS011;8873;48.818;9.422;2023-07-28T02:59:03;4.47;;;3.58;;
17510;SDS011;8873;48.818;9.422;2023-07-28T03:01:34;3.20;;;2.90;;
17510;SDS011;8873;48.818;9.422;2023-07-28T03:04:06;4.53;;;3.75;;
17510;SDS011;8873;48.818;9.422;2023-07-28T03:06:36;7.25;;;4.20;;
17510;SDS011;8873;48.818;9.422;2023-07-28T03:09:05;4.90;;;3.90;;
17510;SDS011;8873;48.818;9.422;2023-07-28T03:11:33;5.63;;;3.83;;
17510;SDS011;8873;48.818;9.422;2023-07-28T03:14:00;4.28;;;3.53;;
17510;SDS011;8873;48.818;9.422;2023-07-28T03:16:28;4.38;;;3.30;;
17510;SDS011;8873;48.818;9.422;2023-07-28T03:18:56;4.07;;;3.47;;
17510;SDS011;8873;48.818;9.422;2023-07-28T03:21:24;4.38;;;3.72;;
17510;SDS011;8873;48.818;9.422;2023-07-28T03:23:51;3.72;;;3.38;;
17510;SDS011;8873;48.818;9.422;2023-07-28T03:26:20;4.18;;;3.47;;
17510;SDS011;8873;48.818;9.422;2023-07-28T03:28:50;5.45;;;3.20;;
17510;SDS011;8873;48.818;9.422;2023-07-28T03:31:18;4.13;;;3.70;;
17510;SDS011;8873;48.818;9.422;2023-07-28T03:33:46;5.45;;;3.85;;
17510;SDS011;8873;48.818;9.422;2023-07-28T03:36:13;5.68;;;3.55;;
17510;SDS011;8873;48.818;9.422;2023-07-28T03:38:41;3.95;;;3.22;;
17510;SDS011;8873;48.818;9.422;2023-07-28T03:41:11;3.63;;;3.33;;
17510;SDS011;8873;48.818;9.422;2023-07-28T03:43:40;7.07;;;3.60;;
17510;SDS011;8873;48.818;9.422;2023-07-28T03:46:08;4.68;;;3.65;;
17510;SDS011;8873;48.818;9.422;2023-07-28T03:48:36;6.22;;;3.90;;
17510;SDS011;8873;48.818;9.422;2023-07-28T03:51:05;5.72;;;3.33;;
17510;SDS011;8873;48.818;9.422;2023-07-28T03:53:33;4.03;;;3.63;;
17510;SDS011;8873;48.818;9.422;2023-07-28T03:56:02;4.82;;;4.07;;
17510;SDS011;8873;48.818;9.422;2023-07-28T03:58:30;3.95;;;3.42;;
17510;SDS011;8873;48.818;9.422;2023-07-28T04:01:00;4.18;;;3.42;;
17510;SDS011;8873;48.818;9.422;2023-07-28T04:03:27;6.50;;;3.10;;
17510;SDS011;8873;48.818;9.422;2023-07-28T04:05:55;4.90;;;3.10;;
17510;SDS011;8873;48.818;9.422;2023-07-28T04:08:23;4.22;;;3.83;;
17510;SDS011;8873;48.818;9.422;2023-07-28T04:10:52;4.03;;;3.55;;
17510;SDS011;8873;48.818;9.422;2023-07-28T04:13:19;5.78;;;3.92;;
17510;SDS011;8873;48.818;9.422;2023-07-28T04:15:47;4.93;;;3.53;;
17510;SDS011;8873;48.818;9.422;2023-07-28T04:18:17;3.95;;;3.58;;
17510;SDS011;8873;48.818;9.422;2023-07-28T04:20:46;4.00;;;3.55;;
17510;SDS011;8873;48.818;9.422;2023-07-28T04:23:14;4.22;;;3.53;;
17510;SDS011;8873;48.818;9.422;2023-07-28T04:25:42;5.72;;;4.15;;
17510;SDS011;8873;48.818;9.422;2023-07-28T04:28:11;4.75;;;3.97;;
17510;SDS011;8873;48.818;9.422;2023-07-28T04:30:38;6.90;;;3.97;;
17510;SDS011;8873;48.818;9.422;2023-07-28T04:33:07;5.10;;;3.80;;
17510;SDS011;8873;48.818;9.422;2023-07-28T04:35:37;6.93;;;3.55;;
17510;SDS011;8873;48.818;9.422;2023-07-28T04:38:05;3.30;;;3.08;;
17510;SDS011;8873;48.818;9.422;2023-07-28T04:40:32;5.50;;;3.92;;
17510;SDS011;8873;48.818;9.422;2023-07-28T04:43:00;5.20;;;4.03;;
17510;SDS011;8873;48.818;9.422;2023-07-28T04:45:28;5.75;;;3.50;;
17510;SDS011;8873;48.818;9.422;2023-07-28T04:47:56;7.47;;;3.78;;
17510;SDS011;8873;48.818;9.422;2023-07-28T04:50:24;6.03;;;3.75;;
17510;SDS011;8873;48.818;9.422;2023-07-28T04:52:55;4.20;;;3.80;;
17510;SDS011;8873;48.818;9.422;2023-07-28T04:55:25;4.00;;;3.60;;
17510;SDS011;8873;48.818;9.422;2023-07-28T04:57:55;6.38;;;3.47;;
17510;SDS011;8873;48.818;9.422;2023-07-28T05:00:23;3.88;;;3.53;;
17510;SDS011;8873;48.818;9.422;2023-07-28T05:02:51;4.60;;;3.70;;
17510;SDS011;8873;48.818;9.422;2023-07-28T05:05:19;6.40;;;4.40;;
17510;SDS011;8873;48.818;9.422;2023-07-28T05:07:47;5.57;;;3.70;;
17510;SDS011;8873;48.818;9.422;2023-07-28T05:10:16;4.97;;;3.65;;
17510;SDS011;8873;48.818;9.422;2023-07-28T05:12:44;5.57;;;3.60;;
17510;SDS011;8873;48.818;9.422;2023-07-28T05:15:13;6.50;;;3.78;;
17510;SDS011;8873;48.818;9.422;2023-07-28T05:17:41;5.35;;;3.97;;
17510;SDS011;8873;48.818;9.422;2023-07-28T05:20:09;6.55;;;4.10;;
17510;SDS011;8873;48.818;9.422;2023-07-28T05:22:37;6.55;;;4.13;;
17510;SDS011;8873;48.818;9.422;2023-07-28T05:25:05;7.50;;;4.10;;
17510;SDS011;8873;48.818;9.422;2023-07-28T05:27:35;5.28;;;4.13;;
17510;SDS011;8873;48.818;9.422;2023-07-28T05:30:02;5.78;;;3.88;;
17510;SDS011;8873;48.818;9.422;2023-07-28T05:32:30;7.55;;;3.83;;
17510;SDS011;8873;48.818;9.422;2023-07-28T05:34:58;6.97;;;4.60;;
17510;SDS011;8873;48.818;9.422;2023-07-28T05:37:25;4.95;;;4.22;;
17510;SDS011;8873;48.818;9.422;2023-07-28T05:39:53;6.50;;;4.32;;
17510;SDS011;8873;48.818;9.422;2023-07-28T05:42:21;7.43;;;5.20;;
17510;SDS011;8873;48.818;9.422;2023-07-28T05:44:52;8.10;;;4.97;;
17510;SDS011;8873;48.818;9.422;2023-07-28T05:47:23;8.35;;;4.97;;
17510;SDS011;8873;48.818;9.422;2023-07-28T05:49:51;6.85;;;4.88;;
17510;SDS011;8873;48.818;9.422;2023-07-28T05:52:22;8.73;;;4.63;;
17510;SDS011;8873;48.818;9.422;2023-07-28T05:54:56;6.85;;;4.97;;
17510;SDS011;8873;48.818;9.422;2023-07-28T05:57:28;5.93;;;4.63;;
17510;SDS011;8873;48.818;9.422;2023-07-28T06:00:05;8.48;;;5.13;;
17510;SDS011;8873;48.818;9.422;2023-07-28T06:02:40;7.35;;;5.15;;
17510;SDS011;8873;48.818;9.422;2023-07-28T06:05:08;5.40;;;4.78;;
17510;SDS011;8873;48.818;9.422;2023-07-28T06:07:37;7.30;;;4.63;;
17510;SDS011;8873;48.818;9.422;2023-07-28T06:10:05;7.35;;;4.75;;
17510;SDS011;8873;48.818;9.422;2023-07-28T06:12:33;7.40;;;4.82;;
17510;SDS011;8873;48.818;9.422;2023-07-28T06:15:00;10.68;;;5.03;;
17510;SDS011;8873;48.818;9.422;2023-07-28T06:17:29;10.15;;;5.38;;
17510;SDS011;8873;48.818;9.422;2023-07-28T06:19:57;8.20;;;4.90;;
17510;SDS011;8873;48.818;9.422;2023-07-28T06:22:25;11.73;;;5.22;;
17510;SDS011;8873;48.818;9.422;2023-07-28T06:24:52;9.07;;;5.32;;
17510;SDS011;8873;48.818;9.422;2023-07-28T06:27:20;10.95;;;5.60;;
17510;SDS011;8873;48.818;9.422;2023-07-28T06:29:48;9.95;;;5.25;;
17510;SDS011;8873;48.818;9.422;2023-07-28T06:32:15;7.68;;;5.55;;
17510;SDS011;8873;48.818;9.422;2023-07-28T06:34:44;7.90;;;5.15;;
17510;SDS011;8873;48.818;9.422;2023-07-28T06:37:12;8.75;;;5.72;;
17510;SDS011;8873;48.818;9.422;2023-07-28T06:39:40;7.97;;;5.22;;
17510;SDS011;8873;48.818;9.422;2023-07-28T06:42:15;8.70;;;5.53;;
17510;SDS011;8873;48.818;9.422;2023-07-28T06:44:52;6.13;;;4.53;;
17510;SDS011;8873;48.818;9.422;2023-07-28T06:47:20;7.75;;;5.60;;
17510;SDS011;8873;48.818;9.422;2023-07-28T06:49:51;7.57;;;4.85;;
17510;SDS011;8873;48.818;9.422;2023-07-28T06:52:20;6.82;;;5.00;;
17510;SDS011;8873;48.818;9.422;2023-07-28T06:54:48;6.75;;;5.18;;
17510;SDS011;8873;48.818;9.422;2023-07-28T06:57:16;11.30;;;5.90;;
17510;SDS011;8873;48.818;9.422;2023-07-28T06:59:44;13.18;;;6.18;;
17510;SDS011;8873;48.818;9.422;2023-07-28T07:02:11;11.50;;;6.05;;
17510;SDS011;8873;48.818;9.422;2023-07-28T07:04:39;14.65;;;6.30;;
17510;SDS011;8873;48.818;9.422;2023-07-28T07:07:08;11.90;;;6.22;;
17510;SDS011;8873;48.818;9.422;2023-07-28T07:09:39;13.93;;;6.65;;
17510;SDS011;8873;48.818;9.422;2023-07-28T07:12:15;10.60;;;5.80;;
17510;SDS011;8873;48.818;9.422;2023-07-28T07:14:43;10.65;;;6.45;;
17510;SDS011;8873;48.818;9.422;2023-07-28T07:17:11;11.55;;;5.88;;
17510;SDS011;8873;48.818;9.422;2023-07-28T07:19:43;10.73;;;6.03;;
17510;SDS011;8873;48.818;9.422;2023-07-28T07:22:13;11.55;;;5.75;;
17510;SDS011;8873;48.818;9.422;2023-07-28T07:24:43;11.77;;;6.28;;
17510;SDS011;8873;48.818;9.422;2023-07-28T07:27:10;8.38;;;5.50;;
17510;SDS011;8873;48.818;9.422;2023-07-28T07:29:38;9.82;;;6.15;;
17510;SDS011;8873;48.818;9.422;2023-07-28T07:32:11;10.32;;;5.97;;
17510;SDS011;8873;48.818;9.422;2023-07-28T07:34:39;10.23;;;5.75;;
17510;SDS011;8873;48.818;9.422;2023-07-28T07:37:09;12.10;;;5.57;;
17510;SDS011;8873;48.818;9.422;2023-07-28T07:39:52;9.05;;;5.72;;
17510;SDS011;8873;48.818;9.422;2023-07-28T07:42:25;12.68;;;5.95;;
17510;SDS011;8873;48.818;9.422;2023-07-28T07:44:53;9.20;;;5.50;;
17510;SDS011;8873;48.818;9.422;2023-07-28T07:47:21;10.02;;;5.70;;
17510;SDS011;8873;48.818;9.422;2023-07-28T07:49:48;10.60;;;5.72;;
17510;SDS011;8873;48.818;9.422;2023-07-28T07:52:18;12.15;;;5.43;;
17510;SDS011;8873;48.818;9.422;2023-07-28T07:54:46;10.02;;;5.88;;
17510;SDS011;8873;48.818;9.422;2023-07-28T07:57:15;6.78;;;4.97;;
17510;SDS011;8873;48.818;9.422;2023-07-28T07:59:44;7.55;;;5.05;;
17510;SDS011;8873;48.818;9.422;2023-07-28T08:02:11;7.80;;;5.15;;
17510;SDS011;8873;48.818;9.422;2023-07-28T08:04:40;5.50;;;4.60;;
17510;SDS011;8873;48.818;9.422;2023-07-28T08:07:08;7.45;;;5.28;;
17510;SDS011;8873;48.818;9.422;2023-07-28T08:09:36;8.20;;;5.07;;
17510;SDS011;8873;48.818;9.422;2023-07-28T08:12:05;9.57;;;4.85;;
17510;SDS011;8873;48.818;9.422;2023-07-28T08:14:37;6.78;;;4.38;;
17510;SDS011;8873;48.818;9.422;2023-07-28T08:17:09;6.88;;;4.60;;
17510;SDS011;8873;48.818;9.422;2023-07-28T08:19:41;5.15;;;4.63;;
17510;SDS011;8873;48.818;9.422;2023-07-28T08:22:11;5.88;;;4.10;;
17510;SDS011;8873;48.818;9.422;2023-07-28T08:24:39;6.57;;;5.03;;
17510;SDS011;8873;48.818;9.422;2023-07-28T08:27:07;8.70;;;4.78;;
17510;SDS011;8873;48.818;9.422;2023-07-28T08:29:37;8.32;;;4.65;;
17510;SDS011;8873;48.818;9.422;2023-07-28T08:32:05;6.13;;;4.07;;
17510;SDS011;8873;48.818;9.422;2023-07-28T08:34:33;5.63;;;4.00;;
17510;SDS011;8873;48.818;9.422;2023-07-28T08:37:01;6.25;;;4.18;;
17510;SDS011;8873;48.818;9.422;2023-07-28T08:39:35;4.68;;;4.18;;
17510;SDS011;8873;48.818;9.422;2023-07-28T08:42:04;5.72;;;4.05;;
17510;SDS011;8873;48.818;9.422;2023-07-28T08:44:34;4.60;;;4.10;;
17510;SDS011;8873;48.818;9.422;2023-07-28T08:47:04;5.35;;;4.47;;
17510;SDS011;8873;48.818;9.422;2023-07-28T08:49:32;6.47;;;4.28;;
17510;SDS011;8873;48.818;9.422;2023-07-28T08:52:02;8.45;;;4.65;;
17510;SDS011;8873;48.818;9.422;2023-07-28T08:54:31;6.68;;;4.40;;
17510;SDS011;8873;48.818;9.422;2023-07-28T08:57:00;6.25;;;4.40;;
17510;SDS011;8873;48.818;9.422;2023-07-28T08:59:28;9.45;;;4.53;;
17510;SDS011;8873;48.818;9.422;2023-07-28T09:01:57;6.65;;;4.15;;
17510;SDS011;8873;48.818;9.422;2023-07-28T09:04:29;6.13;;;4.35;;
17510;SDS011;8873;48.818;9.422;2023-07-28T09:06:57;6.10;;;4.30;;
17510;SDS011;8873;48.818;9.422;2023-07-28T09:09:25;5.13;;;4.28;;
17510;SDS011;8873;48.818;9.422;2023-07-28T09:11:58;5.22;;;4.35;;
17510;SDS011;8873;48.818;9.422;2023-07-28T09:14:26;8.73;;;5.07;;
17510;SDS011;8873;48.818;9.422;2023-07-28T09:16:54;4.88;;;4.30;;
17510;SDS011;8873;48.818;9.422;2023-07-28T09:19:22;6.60;;;4.47;;
17510;SDS011;8873;48.818;9.422;2023-07-28T09:21:58;5.35;;;4.60;;
17510;SDS011;8873;48.818;9.422;2023-07-28T09:24:29;6.38;;;3.78;;
17510;SDS011;8873;48.818;9.422;2023-07-28T09:26:57;7.43;;;4.50;;
17510;SDS011;8873;48.818;9.422;2023-07-28T09:29:25;6.90;;;4.78;;
17510;SDS011;8873;48.818;9.422;2023-07-28T09:32:02;6.25;;;4.72;;
17510;SDS011;8873;48.818;9.422;2023-07-28T09:34:30;7.00;;;3.83;;
17510;SDS011;8873;48.818;9.422;2023-07-28T09:37:00;7.38;;;3.88;;
17510;SDS011;8873;48.818;9.422;2023-07-28T09:39:29;5.53;;;4.10;;
17510;SDS011;8873;48.818;9.422;2023-07-28T09:42:00;6.30;;;4.07;;
17510;SDS011;8873;48.818;9.422;2023-07-28T09:44:30;4.25;;;3.53;;
17510;SDS011;8873;48.818;9.422;2023-07-28T09:46:58;6.68;;;3.95;;
17510;SDS011;8873;48.818;9.422;2023-07-28T09:49:27;5.63;;;3.70;;
17510;SDS011;8873;48.818;9.422;2023-07-28T09:51:57;4.20;;;3.28;;
17510;SDS011;8873;48.818;9.422;2023-07-28T09:54:27;4.88;;;3.33;;
17510;SDS011;8873;48.818;9.422;2023-07-28T09:56:56;3.92;;;3.30;;
17510;SDS011;8873;48.818;9.422;2023-07-28T09:59:25;4.22;;;3.45;;
17510;SDS011;8873;48.818;9.422;2023-07-28T10:01:55;4.20;;;3.47;;
17510;SDS011;8873;48.818;9.422;2023-07-28T10:04:24;3.40;;;3.10;;
17510;SDS011;8873;48.818;9.422;2023-07-28T10:06:51;5.65;;;3.53;;
17510;SDS011;8873;48.818;9.422;2023-07-28T10:09:23;4.47;;;3.30;;
17510;SDS011;8873;48.818;9.422;2023-07-28T10:11:53;3.33;;;3.03;;
17510;SDS011;8873;48.818;9.422;2023-07-28T10:14:27;2.70;;;2.50;;
17510;SDS011;8873;48.818;9.422;2023-07-28T10:16:58;2.67;;;2.47;;
17510;SDS011;8873;48.818;9.422;2023-07-28T10:19:43;4.78;;;2.67;;
17510;SDS011;8873;48.818;9.422;2023-07-28T10:22:11;2.80;;;2.60;;
17510;SDS011;8873;48.818;9.422;2023-07-28T10:24:49;2.60;;;2.40;;
17510;SDS011;8873;48.818;9.422;2023-07-28T10:27:31;2.65;;;2.45;;
17510;SDS011;8873;48.818;9.422;2023-07-28T10:30:00;3.30;;;3.00;;
17510;SDS011;8873;48.818;9.422;2023-07-28T10:32:44;2.72;;;2.53;;
17510;SDS011;8873;48.818;9.422;2023-07-28T10:35:21;3.08;;;2.83;;
17510;SDS011;8873;48.818;9.422;2023-07-28T10:37:50;2.80;;;2.60;;
17510;SDS011;8873;48.818;9.422;2023-07-28T10:40:26;2.95;;;2.25;;
17510;SDS011;8873;48.818;9.422;2023-07-28T10:42:59;2.25;;;2.15;;
17510;SDS011;8873;48.818;9.422;2023-07-28T10:45:27;2.60;;;2.30;;
17510;SDS011;8873;48.818;9.422;2023-07-28T10:47:57;2.97;;;2.55;;
17510;SDS011;8873;48.818;9.422;2023-07-28T10:50:26;2.38;;;2.13;;
17510;SDS011;8873;48.818;9.422;2023-07-28T10:52:54;2.60;;;2.40;;
17510;SDS011;8873;48.818;9.422;2023-07-28T10:55:23;2.50;;;2.30;;
17510;SDS011;8873;48.818;9.422;2023-07-28T10:57:51;2.90;;;2.70;;
17510;SDS011;8873;48.818;9.422;2023-07-28T11:00:21;3.22;;;2.50;;
17510;SDS011;8873;48.818;9.422;2023-07-28T11:02:50;3.15;;;2.50;;
17510;SDS011;8873;48.818;9.422;2023-07-28T11:05:19;2.70;;;2.50;;
17510;SDS011;8873;48.818;9.422;2023-07-28T11:07:49;2.30;;;2.20;;
17510;SDS011;8873;48.818;9.422;2023-07-28T11:10:19;2.75;;;2.55;;
17510;SDS011;8873;48.818;9.422;2023-07-28T11:12:47;2.63;;;2.42;;
17510;SDS011;8873;48.818;9.422;2023-07-28T11:15:18;2.70;;;2.50;;
17510;SDS011;8873;48.818;9.422;2023-07-28T11:17:47;3.25;;;2.55;;
17510;SDS011;8873;48.818;9.422;2023-07-28T11:20:16;2.40;;;2.22;;
17510;SDS011;8873;48.818;9.422;2023-07-28T11:22:44;2.28;;;2.08;;
17510;SDS011;8873;48.818;9.422;2023-07-28T11:25:12;2.40;;;2.20;;
17510;SDS011;8873;48.818;9.422;2023-07-28T11:27:40;3.42;;;2.13;;
17510;SDS011;8873;48.818;9.422;2023-07-28T11:30:07;2.70;;;2.50;;
17510;SDS011;8873;48.818;9.422;2023-07-28T11:32:36;2.47;;;2.30;;
17510;SDS011;8873;48.818;9.422;2023-07-28T11:35:06;3.35;;;2.00;;
17510;SDS011;8873;48.818;9.422;2023-07-28T11:37:35;2.00;;;1.90;;
17510;SDS011;8873;48.818;9.422;2023-07-28T11:40:05;2.30;;;2.10;;
17510;SDS011;8873;48.818;9.422;2023-07-28T11:42:34;2.38;;;2.17;;
17510;SDS011;8873;48.818;9.422;2023-07-28T11:45:03;4.93;;;2.38;;
17510;SDS011;8873;48.818;9.422;2023-07-28T11:47:31;3.00;;;2.13;;
17510;SDS011;8873;48.818;9.422;2023-07-28T11:49:59;2.15;;;2.00;;
17510;SDS011;8873;48.818;9.422;2023-07-28T11:52:30;1.95;;;1.85;;
17510;SDS011;8873;48.818;9.422;2023-07-28T11:54:59;2.20;;;2.10;;
17510;SDS011;8873;48.818;9.422;2023-07-28T11:57:27;1.90;;;1.80;;
17510;SDS011;8873;48.818;9.422;2023-07-28T11:59:57;1.85;;;1.83;;
17510;SDS011;8873;48.818;9.422;2023-07-28T12:02:25;3.53;;;2.20;;
17510;SDS011;8873;48.818;9.422;2023-07-28T12:04:58;2.20;;;2.03;;
17510;SDS011;8873;48.818;9.422;2023-07-28T12:07:29;2.55;;;1.75;;
17510;SDS011;8873;48.818;9.422;2023-07-28T12:09:58;2.20;;;2.10;;
17510;SDS011;8873;48.818;9.422;2023-07-28T12:12:30;2.95;;;2.30;;
17510;SDS011;8873;48.818;9.422;2023-07-28T12:15:17;3.05;;;1.95;;
17510;SDS011;8873;48.818;9.422;2023-07-28T12:18:01;2.10;;;2.00;;
17510;SDS011;8873;48.818;9.422;2023-07-28T12:20:33;2.05;;;1.85;;
17510;SDS011;8873;48.818;9.422;2023-07-28T12:23:04;1.95;;;1.85;;
17510;SDS011;8873;48.818;9.422;2023-07-28T12:25:36;2.40;;;2.30;;
17510;SDS011;8873;48.818;9.422;2023-07-28T12:28:04;2.13;;;1.90;;
17510;SDS011;8873;48.818;9.422;2023-07-28T12:30:45;2.42;;;2.33;;
17510;SDS011;8873;48.818;9.422;2023-07-28T12:33:15;2.50;;;2.17;;
17510;SDS011;8873;48.818;9.422;2023-07-28T12:35:46;2.20;;;2.10;;
17510;SDS011;8873;48.818;9.422;2023-07-28T12:38:16;2.17;;;2.03;;
17510;SDS011;8873;48.818;9.422;2023-07-28T12:40:48;4.25;;;2.20;;
17510;SDS011;8873;48.818;9.422;2023-07-28T12:43:19;2.35;;;2.15;;
17510;SDS011;8873;48.818;9.422;2023-07-28T12:45:50;5.47;;;2.60;;
17510;SDS011;8873;48.818;9.422;2023-07-28T12:48:20;2.30;;;2.10;;
17510;SDS011;8873;48.818;9.422;2023-07-28T12:50:48;2.45;;;2.25;;
17510;SDS011;8873;48.818;9.422;2023-07-28T12:53:29;3.50;;;2.10;;
17510;SDS011;8873;48.818;9.422;2023-07-28T12:55:58;3.03;;;2.58;;
17510;SDS011;8873;48.818;9.422;2023-07-28T12:58:27;2.53;;;2.38;;
17510;SDS011;8873;48.818;9.422;2023-07-28T13:00:58;2.78;;;2.58;;
17510;SDS011;8873;48.818;9.422;2023-07-28T13:03:28;2.60;;;2.40;;
17510;SDS011;8873;48.818;9.422;2023-07-28T13:05:56;2.63;;;2.42;;
17510;SDS011;8873;48.818;9.422;2023-07-28T13:08:24;3.58;;;3.28;;
17510;SDS011;8873;48.818;9.422;2023-07-28T13:10:55;2.70;;;2.20;;
17510;SDS011;8873;48.818;9.422;2023-07-28T13:13:27;2.78;;;2.58;;
17510;SDS011;8873;48.818;9.422;2023-07-28T13:15:56;2.22;;;2.13;;
17510;SDS011;8873;48.818;9.422;2023-07-28T13:18:24;2.47;;;2.05;;
17510;SDS011;8873;48.818;9.422;2023-07-28T13:20:51;2.42;;;2.30;;
17510;SDS011;8873;48.818;9.422;2023-07-28T13:23:21;2.67;;;2.30;;
17510;SDS011;8873;48.818;9.422;2023-07-28T13:25:49;2.25;;;2.05;;
17510;SDS011;8873;48.818;9.422;2023-07-28T13:28:17;2.30;;;2.10;;
17510;SDS011;8873;48.818;9.422;2023-07-28T13:30:48;2.58;;;2.38;;
17510;SDS011;8873;48.818;9.422;2023-07-28T13:33:16;2.40;;;2.20;;
17510;SDS011;8873;48.818;9.422;2023-07-28T13:35:45;2.10;;;2.00;;
17510;SDS011;8873;48.818;9.422;2023-07-28T13:38:13;2.03;;;1.90;;
17510;SDS011;8873;48.818;9.422;2023-07-28T13:40:40;2.03;;;1.90;;
17510;SDS011;8873;48.818;9.422;2023-07-28T13:43:08;2.20;;;2.10;;
17510;SDS011;8873;48.818;9.422;2023-07-28T13:45:43;2.47;;;2.28;;
17510;SDS011;8873;48.818;9.422;2023-07-28T13:48:15;2.60;;;2.40;;
17510;SDS011;8873;48.818;9.422;2023-07-28T13:50:45;2.42;;;2.33;;
17510;SDS011;8873;48.818;9.422;2023-07-28T13:53:21;2.65;;;2.45;;
17510;SDS011;8873;48.818;9.422;2023-07-28T13:55:52;2.63;;;2.22;;
17510;SDS011;8873;48.818;9.422;2023-07-28T13:58:23;2.20;;;2.05;;
17510;SDS011;8873;48.818;9.422;2023-07-28T14:00:51;2.60;;;2.40;;
17510;SDS011;8873;48.818;9.422;2023-07-28T14:03:20;2.22;;;2.13;;
17510;SDS011;8873;48.818;9.422;2023-07-28T14:05:48;3.50;;;2.30;;
17510;SDS011;8873;48.818;9.422;2023-07-28T14:08:16;2.55;;;2.35;;
17510;SDS011;8873;48.818;9.422;2023-07-28T14:10:44;2.63;;;2.42;;
17510;SDS011;8873;48.818;9.422;2023-07-28T14:13:12;2.97;;;2.65;;
17510;SDS011;8873;48.818;9.422;2023-07-28T14:15:40;3.70;;;2.92;;
17510;SDS011;8873;48.818;9.422;2023-07-28T14:18:08;3.30;;;2.78;;
17510;SDS011;8873;48.818;9.422;2023-07-28T14:20:38;3.33;;;2.95;;
17510;SDS011;8873;48.818;9.422;2023-07-28T14:23:20;3.40;;;3.10;;
17510;SDS011;8873;48.818;9.422;2023-07-28T14:25:47;5.97;;;3.33;;
17510;SDS011;8873;48.818;9.422;2023-07-28T14:28:15;3.85;;;3.33;;
17510;SDS011;8873;48.818;9.422;2023-07-28T14:30:43;5.35;;;3.40;;
17510;SDS011;8873;48.818;9.422;2023-07-28T14:33:13;9.50;;;5.95;;
17510;SDS011;8873;48.818;9.422;2023-07-28T14:35:43;11.50;;;9.25;;
17510;SDS011;8873;48.818;9.422;2023-07-28T14:38:11;7.53;;;5.25;;
17510;SDS011;8873;48.818;9.422;2023-07-28T14:40:39;3.83;;;3.42;;
17510;SDS011;8873;48.818;9.422;2023-07-28T14:43:07;4.32;;;3.70;;
17510;SDS011;8873;48.818;9.422;2023-07-28T14:45:35;7.75;;;3.67;;
17510;SDS011;8873;48.818;9.422;2023-07-28T14:48:04;7.18;;;3.80;;
17510;SDS011;8873;48.818;9.422;2023-07-28T14:50:31;6.13;;;4.30;;
17510;SDS011;8873;48.818;9.422;2023-07-28T14:53:00;5.45;;;3.47;;
17510;SDS011;8873;48.818;9.422;2023-07-28T14:55:29;5.28;;;3.60;;
17510;SDS011;8873;48.818;9.422;2023-07-28T14:58:00;7.93;;;3.85;;
17510;SDS011;8873;48.818;9.422;2023-07-28T15:00:28;5.30;;;3.42;;
17510;SDS011;8873;48.818;9.422;2023-07-28T15:02:58;5.82;;;3.92;;
17510;SDS011;8873;48.818;9.422;2023-07-28T15:05:25;5.25;;;3.40;;
17510;SDS011;8873;48.818;9.422;2023-07-28T15:07:53;4.05;;;3.40;;
17510;SDS011;8873;48.818;9.422;2023-07-28T15:10:24;5.65;;;3.97;;
17510;SDS011;8873;48.818;9.422;2023-07-28T15:12:51;5.75;;;3.42;;